Logo AVAMET
Benvolgut visitant, si us plau, ingressa Recuperar contrasenya
AVAMET paisatges
Union Alcoyana

Vila-real Col·legi Santa Maria

Dades diàries. Acumulats / Últims 30 dies disponibles

Data Temperatura (°C) Humitat rel. (%) Pressió rel. (hPa) Vent (km/h) Precipitació
Mínima Mitjana Màxima Amplitud
tèrmica
Mínima Mitjana Màxima Mínima Mitjana Màxima Predom. Mitjana Ràfega
màxima
Total
(mm)
Índex-n
Mínima Mitjana Màxima Mínima Mitjana Màxima n
0 a 1
P0 max
mm 5'
Dades mensuals acumulades fins l'últim dia disponible
01/2022 2,1 4,3 6,6 8,1 10,9 13,3 14,6 12,5 34 66 90 1.024 1.030 1.036   5,8 48,3 8,4
Dades anuals acumulades fins l'últim dia disponible
2022 2,1 4,3 6,6 8,1 10,9 13,3 14,6 12,5 34 66 90 1.024 1.030 1.036   5,8 48,3 8,4
Últims 30 dies disponibles
21-01-2022 5,0     7,3     12,5 7,5 48 64 79 1.024 1.025 1.026 NNW 6,6 33,8 0,0
20-01-2022 4,4     8,2     13,4 9,0 52 71 87 1.026 1.028 1.030 NNW 4,3 37,0 0,0
19-01-2022 3,1     7,3     12,9 9,8 54 68 88 1.029 1.031 1.033 NNW 5,1 45,1 0,0
18-01-2022 2,1     7,3     13,2 11,1 36 60 74 1.030 1.031 1.033 NNW 5,1 35,4 0,0
17-01-2022 4,2     8,0     14,6 10,4 34 57 76 1.032 1.033 1.035 NNW 6,8 38,6 0,0
16-01-2022 4,2     8,3     14,1 9,9 37 58 75 1.028 1.030 1.033 NNW 5,6 48,3 0,0
15-01-2022 4,3     8,5     13,8 9,5 46 66 80 1.026 1.028 1.032 NNW 5,8 45,1 0,0
14-01-2022 4,0     6,8     10,9 6,9 49 67 84 1.032 1.034 1.036 NNW 6,0 41,8 0,0
13-01-2022 5,4     8,9     13,6 8,2 60 80 90 1.033 1.034 1.036 NNW 5,3 40,2 7,2 0,56 2,00
12-01-2022 6,6     10,2     14,2 7,6 40 67 89 1.026 1.029 1.032 NNW 7,4 37,0 1,2
22-12-2021 8,3     10,7     13,7 5,4 81 89 93 1.020 1.021 1.022 WNW 2,3 30,6 0,0
21-12-2021 7,1     10,8     15,4 8,3 78 85 91 1.019 1.020 1.021 NNW 2,3 51,5 0,0
20-12-2021 5,4     9,7     14,2 8,8 66 78 91 1.020 1.021 1.024 NW 2,1 35,4 0,0
19-12-2021 6,9     9,9     13,9 7,0 70 84 91 1.024 1.027 1.031 NNW 2,7 35,4 0,0
18-12-2021 8,2     11,4     13,2 5,0 72 79 89 1.028 1.029 1.031 NNE 2,6 33,8 0,0
17-12-2021 5,8     9,8     14,2 8,4 62 72 81 1.028 1.030 1.032 NNE 5,6 49,9 0,0
16-12-2021 6,2     10,0     14,7 8,5 64 76 85 1.028 1.029 1.031 NNW 5,0 37,0 0,0
15-12-2021 6,4     10,3     16,4 10,0 59 78 93 1.025 1.027 1.029 NNW 2,9 27,4 0,0
14-12-2021 7,4     11,1     15,9 8,5 70 81 90 1.025 1.026 1.028 NNW 2,7 29,0 0,0
13-12-2021 8,0     11,2     15,1 7,1 58 79 89 1.025 1.026 1.027 NNW 3,7 32,2 0,0
12-12-2021 8,5     12,8     17,2 8,7 62 79 90 1.023 1.026 1.027 NNW 3,4 37,0 0,0
11-12-2021 11,7     16,1     21,7 10,0 41 54 75 1.015 1.018 1.023 WNW 5,6 54,7 0,0
10-12-2021 12,9     17,6     21,7 8,8 38 52 72 1.009 1.011 1.015 WSW 14,6 74,0 0,0
09-12-2021 9,3     13,9     19,1 9,8 41 49 61 1.013 1.016 1.018 WNW 10,9 48,3 0,0
08-12-2021 10,0     13,9     17,3 7,3 28 50 72 1.006 1.010 1.015 NW 7,4 49,9 0,0
07-12-2021 9,9     14,6     18,8 8,9 49 63 75 1.009 1.016 1.021 NW 3,9 40,2 0,0
06-12-2021 8,9     12,6     17,2 8,3 40 55 72 1.018 1.020 1.022 NW 4,2 49,9 0,0
05-12-2021 9,6     12,4     15,7 6,1 38 51 73 1.015 1.016 1.018 NW 6,9 82,1 0,0
04-12-2021 8,4     13,8     18,1 9,7 45 59 73 1.016 1.018 1.021 NNW 5,8 64,4 0,0
03-12-2021 7,6     12,1     16,6 9,0 38 53 68 1.014 1.018 1.022 WNW 4,8 48,3 0,0
Últims 13 mesos disponibles
12/2021 5,4 8,3 12,9 12,2 13,2 16,5 21,7 16,3 49 67 89 1.010 1.021 1.030 NNW 5,1 82,1 0,2
11/2021 6,6 10,4 15,5 13,7 10,1 18,0 26,9 20,3 44 64 81 1.003 1.015 1.029 NNW 6,4 61,2 45,6
10/2021 11,8 15,2 18,6 19,0 20,1 23,0 30,0 18,2 54 74 83 1.008 1.019 1.026 NNW 5,2 62,8 8,0
09/2021 14,4 19,5 22,6 23,1 22,6 26,8 29,4 15,0 57 77 87 1.012 1.017 1.024 NNE 5,7 61,2 41,2
08/2021 18,1 21,6 24,7 25,1 25,1 28,6 36,9 18,8 57 75 89 1.006 1.015 1.020 S 4,7 49,9 27,0
07/2021 18,8 20,9 24,8 24,7 24,9 27,9 30,6 11,8 47 73 82 1.008 1.014 1.021 S 5,1 45,1 7,4
06/2021 16,3 18,9 22,3 22,6 21,8 26,2 31,7 15,4 51 72 85 1.008 1.016 1.022 S 5,1 40,2 15,0
05/2021 11,5 14,4 18,3 18,0 16,2 21,7 31,7 20,2 46 73 88 1.008 1.016 1.023 S 5,5 53,1 15,6
04/2021 6,2 10,3 13,6 13,3 11,9 16,6 21,7 15,5 55 78 94 1.006 1.016 1.025 NNW 5,8 43,5 93,6
03/2021 4,8 8,6 12,4 12,2 11,1 16,0 20,9 16,1 54 74 91 1.014 1.023 1.031 NNW 6,9 43,5 42,6
02/2021 5,4 9,6 16,7 12,9 12,8 16,6 24,1 18,7 41 74 90 1.002 1.019 1.035 NNW 6,5 75,6 15,6
01/2021 1,2 6,0 13,8 10,4 6,0 15,5 27,2 26,0 42 62 88 1.007 1.016 1.028 NNW 8,2 82,1 31,4
12/2020 1,7 7,7 12,8 12,1 13,2 16,2 20,4 18,7 43 62 87 996 1.014 1.028 NNW 6,4 53,1 1,8
Tots els anys disponibles
2021 1,2 13,8 24,7 17,4 6,0 21,3 36,9 35,7 41 72 94 1.002 1.017 1.035 NNW 5,9 82,1 399,6
2017 1,2 13,5 28,8 17,3 8,2 21,2 33,9 32,7 NW 5,8 78,9 301,8
2016 4,3 13,2 27,2 16,7 10,8 20,6 31,9 27,6 NW 6,5 64,4 327,8
2015 5,0 15,6 26,9 19,3 13,7 23,2 34,7 29,7 NW 4,4 64,4 173,6
Temperatura (°C)
Humitat relativa (%)
Velocitat del vent i ràfega màxima (km/h)
Direcció del vent (°)
Pressió (hPa)
Precipitació (mm)
Nota sobre les dades: s'avisa a l'usuari de la provisionalitat i no oficialitat d'aquestes dades
Logo AVAMET blanc
Web allotjada a Sollutia
Llicència de Creative CommonsLa web d'AVAMET i els seus continguts estan subjectes a una llicència de
Reconeixement - No Comercial - Compartir igual
Avís legal - Política de privacitat - Política de cookies
NOVES ESTACIONS: Sucaina - Masico Blanco (Soci) / Les Coves de Vinromà - Mas del Tonto (Soci) / Altea - Club Nàutic d'Altea (Soci) / Aiora - la Hunde (Pròpia AVAMET) / Carlet - Caseta del banc (Soci) / Albocàsser (Ajuntament Soci) / Tírig (Ajuntament Soci) / Monòver (Soci) / Gandia - Grau sud (Ajuntament Soci) / Caudiel (Ajuntament Soci) / Montcada - CIDE (Soci) / el Campello - el Vincle (Soci) / Pego - Corral de Rata (Soci) / Torreblanca - Torrenostra - PN el Prat (Pròpia AVAMET)  - - -